Kirovskij, Russia
Current Conditions -  °F | °C
As of 6:30 AM on Friday 21 Nov 2014 (Local Time) from UHWW Reporting Station
Haze Haze  
Wind Chill: 37°   Ceiling: 1500
Heat Index: 37°   Visibility: 2.5mi
Dew Point: 37°   Wind: 2mph
Humidity: 100%   Direction: NA
Pressure: 30.03"   Gusts: NA
Location:  45.09°N, 133.51°E
Report Text: UHWW 202030Z VRB01MPS 4000 BR BKN015CB OVC100 03/03 Q1017 NOSIGRMK QFE761/1015 2529//60
Loading
Personal Weather Stations






























Interactive Weather Map New forecast layout! Learn more

10-Day Weather Forecast

Advertisements
Track Severe Weather on mobile